sensor_id;sensor_type;location;lat;lon;timestamp;P1;durP1;ratioP1;P2;durP2;ratioP2
68097;SDS011;54886;47.036;15.466;2023-05-31T00:01:05;7.72;;;3.50;;
68097;SDS011;54886;47.036;15.466;2023-05-31T00:03:31;7.15;;;3.47;;
68097;SDS011;54886;47.036;15.466;2023-05-31T00:05:56;7.75;;;4.00;;
68097;SDS011;54886;47.036;15.466;2023-05-31T00:08:22;6.85;;;3.55;;
68097;SDS011;54886;47.036;15.466;2023-05-31T00:10:47;7.03;;;3.33;;
68097;SDS011;54886;47.036;15.466;2023-05-31T00:13:12;6.22;;;3.70;;
68097;SDS011;54886;47.036;15.466;2023-05-31T00:15:38;5.93;;;3.47;;
68097;SDS011;54886;47.036;15.466;2023-05-31T00:18:03;6.72;;;3.65;;
68097;SDS011;54886;47.036;15.466;2023-05-31T00:20:28;5.40;;;3.10;;
68097;SDS011;54886;47.036;15.466;2023-05-31T00:22:54;8.70;;;3.88;;
68097;SDS011;54886;47.036;15.466;2023-05-31T00:25:19;7.40;;;3.53;;
68097;SDS011;54886;47.036;15.466;2023-05-31T00:27:45;7.80;;;3.55;;
68097;SDS011;54886;47.036;15.466;2023-05-31T00:30:10;5.82;;;3.15;;
68097;SDS011;54886;47.036;15.466;2023-05-31T00:32:36;6.95;;;3.53;;
68097;SDS011;54886;47.036;15.466;2023-05-31T00:35:02;7.68;;;3.50;;
68097;SDS011;54886;47.036;15.466;2023-05-31T00:37:27;8.70;;;3.97;;
68097;SDS011;54886;47.036;15.466;2023-05-31T00:39:53;6.43;;;3.53;;
68097;SDS011;54886;47.036;15.466;2023-05-31T00:42:18;6.10;;;3.47;;
68097;SDS011;54886;47.036;15.466;2023-05-31T00:44:43;8.18;;;3.60;;
68097;SDS011;54886;47.036;15.466;2023-05-31T00:47:09;10.35;;;3.78;;
68097;SDS011;54886;47.036;15.466;2023-05-31T00:49:34;6.45;;;3.38;;
68097;SDS011;54886;47.036;15.466;2023-05-31T00:52:00;7.82;;;3.63;;
68097;SDS011;54886;47.036;15.466;2023-05-31T00:54:26;8.07;;;4.10;;
68097;SDS011;54886;47.036;15.466;2023-05-31T00:56:51;6.97;;;3.33;;
68097;SDS011;54886;47.036;15.466;2023-05-31T00:59:17;6.10;;;3.47;;
68097;SDS011;54886;47.036;15.466;2023-05-31T01:01:42;7.68;;;3.42;;
68097;SDS011;54886;47.036;15.466;2023-05-31T01:04:08;7.43;;;3.35;;
68097;SDS011;54886;47.036;15.466;2023-05-31T01:06:34;7.57;;;3.55;;
68097;SDS011;54886;47.036;15.466;2023-05-31T01:09:03;7.57;;;3.50;;
68097;SDS011;54886;47.036;15.466;2023-05-31T01:11:47;6.25;;;3.72;;
68097;SDS011;54886;47.036;15.466;2023-05-31T01:20:15;7.90;;;3.60;;
68097;SDS011;54886;47.036;15.466;2023-05-31T01:22:52;8.88;;;3.67;;
68097;SDS011;54886;47.036;15.466;2023-05-31T01:28:31;5.32;;;3.22;;
68097;SDS011;54886;47.036;15.466;2023-05-31T01:31:01;6.60;;;3.55;;
68097;SDS011;54886;47.036;15.466;2023-05-31T01:33:28;7.97;;;3.60;;
68097;SDS011;54886;47.036;15.466;2023-05-31T01:35:54;8.68;;;3.90;;
68097;SDS011;54886;47.036;15.466;2023-05-31T01:38:19;6.38;;;3.30;;
68097;SDS011;54886;47.036;15.466;2023-05-31T01:40:45;7.88;;;3.70;;
68097;SDS011;54886;47.036;15.466;2023-05-31T01:43:10;8.02;;;3.42;;
68097;SDS011;54886;47.036;15.466;2023-05-31T01:45:36;8.07;;;3.65;;
68097;SDS011;54886;47.036;15.466;2023-05-31T01:48:04;5.90;;;3.78;;
68097;SDS011;54886;47.036;15.466;2023-05-31T01:50:34;5.78;;;3.25;;
68097;SDS011;54886;47.036;15.466;2023-05-31T01:53:00;6.35;;;3.13;;
68097;SDS011;54886;47.036;15.466;2023-05-31T01:55:26;5.78;;;3.15;;
68097;SDS011;54886;47.036;15.466;2023-05-31T01:57:52;7.88;;;3.53;;
68097;SDS011;54886;47.036;15.466;2023-05-31T02:00:21;8.15;;;3.50;;
68097;SDS011;54886;47.036;15.466;2023-05-31T02:02:47;5.25;;;3.20;;
68097;SDS011;54886;47.036;15.466;2023-05-31T02:05:15;7.07;;;3.50;;
68097;SDS011;54886;47.036;15.466;2023-05-31T02:07:41;7.43;;;3.35;;
68097;SDS011;54886;47.036;15.466;2023-05-31T02:10:09;6.80;;;3.55;;
68097;SDS011;54886;47.036;15.466;2023-05-31T02:12:35;6.05;;;3.20;;
68097;SDS011;54886;47.036;15.466;2023-05-31T02:15:01;8.07;;;3.50;;
68097;SDS011;54886;47.036;15.466;2023-05-31T02:17:27;5.53;;;3.33;;
68097;SDS011;54886;47.036;15.466;2023-05-31T02:19:54;6.65;;;3.88;;
68097;SDS011;54886;47.036;15.466;2023-05-31T02:22:19;6.07;;;3.38;;
68097;SDS011;54886;47.036;15.466;2023-05-31T02:24:46;7.35;;;3.40;;
68097;SDS011;54886;47.036;15.466;2023-05-31T02:27:12;6.75;;;3.90;;
68097;SDS011;54886;47.036;15.466;2023-05-31T02:29:38;6.18;;;3.33;;
68097;SDS011;54886;47.036;15.466;2023-05-31T02:32:03;7.82;;;3.38;;
68097;SDS011;54886;47.036;15.466;2023-05-31T02:34:29;6.70;;;3.50;;
68097;SDS011;54886;47.036;15.466;2023-05-31T02:36:55;7.57;;;3.80;;
68097;SDS011;54886;47.036;15.466;2023-05-31T02:39:21;6.22;;;3.25;;
68097;SDS011;54886;47.036;15.466;2023-05-31T02:41:46;6.93;;;3.40;;
68097;SDS011;54886;47.036;15.466;2023-05-31T02:44:12;7.18;;;3.50;;
68097;SDS011;54886;47.036;15.466;2023-05-31T02:46:38;6.22;;;3.10;;
68097;SDS011;54886;47.036;15.466;2023-05-31T02:49:04;6.25;;;3.38;;
68097;SDS011;54886;47.036;15.466;2023-05-31T02:51:29;6.20;;;3.60;;
68097;SDS011;54886;47.036;15.466;2023-05-31T02:53:55;8.55;;;3.40;;
68097;SDS011;54886;47.036;15.466;2023-05-31T02:56:20;9.63;;;3.70;;
68097;SDS011;54886;47.036;15.466;2023-05-31T02:58:46;6.45;;;3.10;;
68097;SDS011;54886;47.036;15.466;2023-05-31T03:01:11;6.22;;;3.53;;
68097;SDS011;54886;47.036;15.466;2023-05-31T03:03:38;8.05;;;3.80;;
68097;SDS011;54886;47.036;15.466;2023-05-31T03:06:04;6.35;;;3.25;;
68097;SDS011;54886;47.036;15.466;2023-05-31T03:08:29;7.28;;;3.15;;
68097;SDS011;54886;47.036;15.466;2023-05-31T03:10:55;5.50;;;3.17;;
68097;SDS011;54886;47.036;15.466;2023-05-31T03:13:20;9.65;;;3.55;;
68097;SDS011;54886;47.036;15.466;2023-05-31T03:15:46;7.40;;;3.08;;
68097;SDS011;54886;47.036;15.466;2023-05-31T03:18:11;8.20;;;3.80;;
68097;SDS011;54886;47.036;15.466;2023-05-31T03:20:37;6.60;;;3.13;;
68097;SDS011;54886;47.036;15.466;2023-05-31T03:23:03;7.32;;;3.42;;
68097;SDS011;54886;47.036;15.466;2023-05-31T03:25:28;6.70;;;3.33;;
68097;SDS011;54886;47.036;15.466;2023-05-31T03:27:53;7.43;;;3.42;;
68097;SDS011;54886;47.036;15.466;2023-05-31T03:30:19;7.35;;;3.33;;
68097;SDS011;54886;47.036;15.466;2023-05-31T03:32:44;7.55;;;3.60;;
68097;SDS011;54886;47.036;15.466;2023-05-31T03:35:10;7.65;;;3.28;;
68097;SDS011;54886;47.036;15.466;2023-05-31T03:37:35;7.85;;;3.20;;
68097;SDS011;54886;47.036;15.466;2023-05-31T03:40:01;8.30;;;3.92;;
68097;SDS011;54886;47.036;15.466;2023-05-31T03:42:27;8.93;;;3.50;;
68097;SDS011;54886;47.036;15.466;2023-05-31T03:44:52;7.97;;;3.78;;
68097;SDS011;54886;47.036;15.466;2023-05-31T03:47:17;6.57;;;3.55;;
68097;SDS011;54886;47.036;15.466;2023-05-31T03:49:43;6.97;;;3.53;;
68097;SDS011;54886;47.036;15.466;2023-05-31T03:52:08;7.75;;;3.72;;
68097;SDS011;54886;47.036;15.466;2023-05-31T03:54:37;9.43;;;3.40;;
68097;SDS011;54886;47.036;15.466;2023-05-31T03:57:03;9.10;;;3.58;;
68097;SDS011;54886;47.036;15.466;2023-05-31T03:59:28;8.20;;;3.85;;
68097;SDS011;54886;47.036;15.466;2023-05-31T04:01:54;7.88;;;3.33;;
68097;SDS011;54886;47.036;15.466;2023-05-31T04:04:20;8.65;;;3.42;;
68097;SDS011;54886;47.036;15.466;2023-05-31T04:06:45;7.68;;;3.20;;
68097;SDS011;54886;47.036;15.466;2023-05-31T04:09:11;8.40;;;3.40;;
68097;SDS011;54886;47.036;15.466;2023-05-31T04:11:36;8.20;;;3.63;;
68097;SDS011;54886;47.036;15.466;2023-05-31T04:14:02;8.38;;;3.40;;
68097;SDS011;54886;47.036;15.466;2023-05-31T04:16:27;8.93;;;3.25;;
68097;SDS011;54886;47.036;15.466;2023-05-31T04:18:53;8.70;;;3.50;;
68097;SDS011;54886;47.036;15.466;2023-05-31T04:21:18;9.60;;;3.40;;
68097;SDS011;54886;47.036;15.466;2023-05-31T04:23:44;9.60;;;3.17;;
68097;SDS011;54886;47.036;15.466;2023-05-31T04:26:09;7.53;;;3.38;;
68097;SDS011;54886;47.036;15.466;2023-05-31T04:28:42;7.55;;;3.20;;
68097;SDS011;54886;47.036;15.466;2023-05-31T04:31:08;9.45;;;3.22;;
68097;SDS011;54886;47.036;15.466;2023-05-31T04:33:33;10.05;;;3.40;;
68097;SDS011;54886;47.036;15.466;2023-05-31T04:36:00;9.43;;;3.58;;
68097;SDS011;54886;47.036;15.466;2023-05-31T04:38:28;12.13;;;3.25;;
68097;SDS011;54886;47.036;15.466;2023-05-31T04:40:54;6.75;;;3.20;;
68097;SDS011;54886;47.036;15.466;2023-05-31T04:45:47;8.68;;;3.40;;
68097;SDS011;54886;47.036;15.466;2023-05-31T04:48:13;10.02;;;3.38;;
68097;SDS011;54886;47.036;15.466;2023-05-31T04:50:40;8.23;;;3.50;;
68097;SDS011;54886;47.036;15.466;2023-05-31T04:53:05;7.95;;;3.33;;
68097;SDS011;54886;47.036;15.466;2023-05-31T04:55:31;9.95;;;3.95;;
68097;SDS011;54886;47.036;15.466;2023-05-31T04:57:56;7.68;;;3.40;;
68097;SDS011;54886;47.036;15.466;2023-05-31T05:00:22;7.50;;;3.60;;
68097;SDS011;54886;47.036;15.466;2023-05-31T05:02:47;9.70;;;3.47;;
68097;SDS011;54886;47.036;15.466;2023-05-31T05:05:12;9.23;;;3.58;;
68097;SDS011;54886;47.036;15.466;2023-05-31T05:07:38;7.70;;;3.05;;
68097;SDS011;54886;47.036;15.466;2023-05-31T05:10:03;8.27;;;3.42;;
68097;SDS011;54886;47.036;15.466;2023-05-31T05:12:29;8.77;;;3.40;;
68097;SDS011;54886;47.036;15.466;2023-05-31T05:14:55;8.75;;;3.30;;
68097;SDS011;54886;47.036;15.466;2023-05-31T05:17:20;9.65;;;3.40;;
68097;SDS011;54886;47.036;15.466;2023-05-31T05:19:46;11.18;;;3.67;;
68097;SDS011;54886;47.036;15.466;2023-05-31T05:22:11;8.90;;;3.75;;
68097;SDS011;54886;47.036;15.466;2023-05-31T05:24:37;10.48;;;3.65;;
68097;SDS011;54886;47.036;15.466;2023-05-31T05:27:02;9.50;;;3.53;;
68097;SDS011;54886;47.036;15.466;2023-05-31T05:29:28;8.77;;;3.63;;
68097;SDS011;54886;47.036;15.466;2023-05-31T05:31:53;8.45;;;3.67;;
68097;SDS011;54886;47.036;15.466;2023-05-31T05:34:19;11.10;;;3.60;;
68097;SDS011;54886;47.036;15.466;2023-05-31T05:36:47;8.55;;;3.58;;
68097;SDS011;54886;47.036;15.466;2023-05-31T05:39:12;12.38;;;3.88;;
68097;SDS011;54886;47.036;15.466;2023-05-31T05:41:37;7.25;;;3.15;;
68097;SDS011;54886;47.036;15.466;2023-05-31T05:44:03;8.30;;;3.50;;
68097;SDS011;54886;47.036;15.466;2023-05-31T05:46:28;8.90;;;3.40;;
68097;SDS011;54886;47.036;15.466;2023-05-31T05:48:53;8.27;;;3.45;;
68097;SDS011;54886;47.036;15.466;2023-05-31T05:51:19;11.05;;;3.63;;
68097;SDS011;54886;47.036;15.466;2023-05-31T05:53:44;12.48;;;3.58;;
68097;SDS011;54886;47.036;15.466;2023-05-31T05:56:10;9.75;;;3.63;;
68097;SDS011;54886;47.036;15.466;2023-05-31T05:58:44;12.57;;;3.45;;
68097;SDS011;54886;47.036;15.466;2023-05-31T06:01:11;10.88;;;3.30;;
68097;SDS011;54886;47.036;15.466;2023-05-31T06:03:38;9.30;;;3.38;;
68097;SDS011;54886;47.036;15.466;2023-05-31T06:06:04;9.25;;;3.70;;
68097;SDS011;54886;47.036;15.466;2023-05-31T06:08:29;10.10;;;4.00;;
68097;SDS011;54886;47.036;15.466;2023-05-31T06:10:55;10.07;;;3.42;;
68097;SDS011;54886;47.036;15.466;2023-05-31T06:13:20;8.75;;;3.72;;
68097;SDS011;54886;47.036;15.466;2023-05-31T06:15:45;10.02;;;3.78;;
68097;SDS011;54886;47.036;15.466;2023-05-31T06:18:11;8.63;;;3.50;;
68097;SDS011;54886;47.036;15.466;2023-05-31T06:20:36;10.18;;;3.70;;
68097;SDS011;54886;47.036;15.466;2023-05-31T06:23:02;8.45;;;3.53;;
68097;SDS011;54886;47.036;15.466;2023-05-31T06:25:27;9.73;;;3.42;;
68097;SDS011;54886;47.036;15.466;2023-05-31T06:27:53;11.10;;;3.47;;
68097;SDS011;54886;47.036;15.466;2023-05-31T06:30:22;7.78;;;3.50;;
68097;SDS011;54886;47.036;15.466;2023-05-31T06:32:47;11.60;;;3.80;;
68097;SDS011;54886;47.036;15.466;2023-05-31T06:35:12;11.43;;;4.38;;
68097;SDS011;54886;47.036;15.466;2023-05-31T06:37:38;8.25;;;3.67;;
68097;SDS011;54886;47.036;15.466;2023-05-31T06:40:04;8.50;;;3.60;;
68097;SDS011;54886;47.036;15.466;2023-05-31T06:42:31;9.68;;;3.53;;
68097;SDS011;54886;47.036;15.466;2023-05-31T06:44:57;8.00;;;3.92;;
68097;SDS011;54886;47.036;15.466;2023-05-31T06:47:22;10.98;;;3.95;;
68097;SDS011;54886;47.036;15.466;2023-05-31T06:49:48;10.48;;;3.53;;
68097;SDS011;54886;47.036;15.466;2023-05-31T06:52:14;10.45;;;4.00;;
68097;SDS011;54886;47.036;15.466;2023-05-31T06:54:39;9.63;;;3.70;;
68097;SDS011;54886;47.036;15.466;2023-05-31T06:57:07;8.82;;;3.88;;
68097;SDS011;54886;47.036;15.466;2023-05-31T06:59:33;8.00;;;4.03;;
68097;SDS011;54886;47.036;15.466;2023-05-31T07:01:58;8.98;;;3.60;;
68097;SDS011;54886;47.036;15.466;2023-05-31T07:04:23;8.10;;;3.20;;
68097;SDS011;54886;47.036;15.466;2023-05-31T07:06:49;9.00;;;3.60;;
68097;SDS011;54886;47.036;15.466;2023-05-31T07:09:15;9.45;;;3.90;;
68097;SDS011;54886;47.036;15.466;2023-05-31T07:11:40;12.23;;;3.92;;
68097;SDS011;54886;47.036;15.466;2023-05-31T07:14:06;7.88;;;3.90;;
68097;SDS011;54886;47.036;15.466;2023-05-31T07:16:32;9.52;;;3.70;;
68097;SDS011;54886;47.036;15.466;2023-05-31T07:18:57;10.07;;;3.88;;
68097;SDS011;54886;47.036;15.466;2023-05-31T07:21:23;8.48;;;3.67;;
68097;SDS011;54886;47.036;15.466;2023-05-31T07:23:48;9.43;;;3.90;;
68097;SDS011;54886;47.036;15.466;2023-05-31T07:26:14;9.13;;;4.03;;
68097;SDS011;54886;47.036;15.466;2023-05-31T07:28:42;7.55;;;3.70;;
68097;SDS011;54886;47.036;15.466;2023-05-31T07:31:12;9.43;;;3.80;;
68097;SDS011;54886;47.036;15.466;2023-05-31T07:33:38;8.88;;;3.70;;
68097;SDS011;54886;47.036;15.466;2023-05-31T07:36:03;11.10;;;3.97;;
68097;SDS011;54886;47.036;15.466;2023-05-31T07:38:29;8.65;;;3.85;;
68097;SDS011;54886;47.036;15.466;2023-05-31T07:40:55;10.02;;;4.03;;
68097;SDS011;54886;47.036;15.466;2023-05-31T07:43:22;8.65;;;3.92;;
68097;SDS011;54886;47.036;15.466;2023-05-31T07:45:48;9.98;;;4.15;;
68097;SDS011;54886;47.036;15.466;2023-05-31T07:48:18;7.93;;;4.05;;
68097;SDS011;54886;47.036;15.466;2023-05-31T07:50:44;10.38;;;4.53;;
68097;SDS011;54886;47.036;15.466;2023-05-31T07:53:10;10.73;;;4.40;;
68097;SDS011;54886;47.036;15.466;2023-05-31T07:55:35;11.38;;;4.53;;
68097;SDS011;54886;47.036;15.466;2023-05-31T07:58:02;8.30;;;3.90;;
68097;SDS011;54886;47.036;15.466;2023-05-31T08:00:27;9.35;;;4.40;;
68097;SDS011;54886;47.036;15.466;2023-05-31T08:02:53;8.38;;;4.03;;
68097;SDS011;54886;47.036;15.466;2023-05-31T08:05:18;8.13;;;3.97;;
68097;SDS011;54886;47.036;15.466;2023-05-31T08:07:44;7.82;;;3.97;;
68097;SDS011;54886;47.036;15.466;2023-05-31T08:10:09;10.07;;;4.20;;
68097;SDS011;54886;47.036;15.466;2023-05-31T08:12:36;7.55;;;4.28;;
68097;SDS011;54886;47.036;15.466;2023-05-31T08:15:02;7.50;;;4.18;;
68097;SDS011;54886;47.036;15.466;2023-05-31T08:17:27;9.18;;;4.30;;
68097;SDS011;54886;47.036;15.466;2023-05-31T08:19:53;8.77;;;4.22;;
68097;SDS011;54886;47.036;15.466;2023-05-31T08:22:18;10.07;;;4.32;;
68097;SDS011;54886;47.036;15.466;2023-05-31T08:24:44;7.82;;;4.05;;
68097;SDS011;54886;47.036;15.466;2023-05-31T08:27:09;10.70;;;4.25;;
68097;SDS011;54886;47.036;15.466;2023-05-31T08:29:35;9.52;;;4.40;;
68097;SDS011;54886;47.036;15.466;2023-05-31T08:32:00;9.90;;;4.38;;
68097;SDS011;54886;47.036;15.466;2023-05-31T08:34:26;8.45;;;4.05;;
68097;SDS011;54886;47.036;15.466;2023-05-31T08:36:52;9.93;;;4.30;;
68097;SDS011;54886;47.036;15.466;2023-05-31T08:39:17;7.65;;;4.05;;
68097;SDS011;54886;47.036;15.466;2023-05-31T08:44:19;8.98;;;4.10;;
68097;SDS011;54886;47.036;15.466;2023-05-31T08:49:12;7.30;;;3.97;;
68097;SDS011;54886;47.036;15.466;2023-05-31T08:51:41;8.77;;;4.25;;
68097;SDS011;54886;47.036;15.466;2023-05-31T08:54:10;8.40;;;4.45;;
68097;SDS011;54886;47.036;15.466;2023-05-31T08:56:37;8.75;;;4.15;;
68097;SDS011;54886;47.036;15.466;2023-05-31T08:59:03;11.07;;;4.32;;
68097;SDS011;54886;47.036;15.466;2023-05-31T09:01:32;8.57;;;4.03;;
68097;SDS011;54886;47.036;15.466;2023-05-31T09:03:58;12.15;;;4.35;;
68097;SDS011;54886;47.036;15.466;2023-05-31T09:06:24;9.27;;;4.40;;
68097;SDS011;54886;47.036;15.466;2023-05-31T09:08:49;7.97;;;4.38;;
68097;SDS011;54886;47.036;15.466;2023-05-31T09:11:15;8.30;;;4.50;;
68097;SDS011;54886;47.036;15.466;2023-05-31T09:13:40;8.43;;;4.18;;
68097;SDS011;54886;47.036;15.466;2023-05-31T09:16:06;12.10;;;4.00;;
68097;SDS011;54886;47.036;15.466;2023-05-31T09:18:38;8.82;;;4.43;;
68097;SDS011;54886;47.036;15.466;2023-05-31T09:21:08;9.82;;;4.80;;
68097;SDS011;54886;47.036;15.466;2023-05-31T09:23:38;9.95;;;4.22;;
68097;SDS011;54886;47.036;15.466;2023-05-31T09:26:17;8.90;;;4.47;;
68097;SDS011;54886;47.036;15.466;2023-05-31T09:28:47;9.07;;;4.43;;
68097;SDS011;54886;47.036;15.466;2023-05-31T09:31:14;8.00;;;4.13;;
68097;SDS011;54886;47.036;15.466;2023-05-31T09:33:43;6.93;;;4.03;;
68097;SDS011;54886;47.036;15.466;2023-05-31T09:36:11;13.48;;;4.53;;
68097;SDS011;54886;47.036;15.466;2023-05-31T09:38:37;8.40;;;4.47;;
68097;SDS011;54886;47.036;15.466;2023-05-31T09:43:46;7.93;;;4.07;;
68097;SDS011;54886;47.036;15.466;2023-05-31T09:46:13;8.68;;;4.65;;
68097;SDS011;54886;47.036;15.466;2023-05-31T09:48:40;8.30;;;4.20;;
68097;SDS011;54886;47.036;15.466;2023-05-31T09:51:07;8.82;;;4.38;;
68097;SDS011;54886;47.036;15.466;2023-05-31T09:53:37;8.07;;;4.43;;
68097;SDS011;54886;47.036;15.466;2023-05-31T09:56:27;8.48;;;4.25;;
68097;SDS011;54886;47.036;15.466;2023-05-31T09:58:54;8.05;;;4.18;;
68097;SDS011;54886;47.036;15.466;2023-05-31T10:01:21;9.85;;;4.40;;
68097;SDS011;54886;47.036;15.466;2023-05-31T10:03:48;8.50;;;3.95;;
68097;SDS011;54886;47.036;15.466;2023-05-31T10:06:17;9.65;;;4.22;;
68097;SDS011;54886;47.036;15.466;2023-05-31T10:08:44;8.25;;;4.55;;
68097;SDS011;54886;47.036;15.466;2023-05-31T10:11:11;9.38;;;4.30;;
68097;SDS011;54886;47.036;15.466;2023-05-31T10:13:41;6.82;;;4.07;;
68097;SDS011;54886;47.036;15.466;2023-05-31T10:16:10;8.35;;;4.25;;
68097;SDS011;54886;47.036;15.466;2023-05-31T10:18:40;9.98;;;4.40;;
68097;SDS011;54886;47.036;15.466;2023-05-31T10:21:12;9.52;;;4.07;;
68097;SDS011;54886;47.036;15.466;2023-05-31T10:23:49;9.82;;;4.55;;
68097;SDS011;54886;47.036;15.466;2023-05-31T10:26:19;8.75;;;4.35;;
68097;SDS011;54886;47.036;15.466;2023-05-31T10:28:54;8.95;;;4.20;;
68097;SDS011;54886;47.036;15.466;2023-05-31T10:31:51;8.50;;;4.40;;
68097;SDS011;54886;47.036;15.466;2023-05-31T10:34:23;8.30;;;4.15;;
68097;SDS011;54886;47.036;15.466;2023-05-31T10:36:50;8.88;;;4.43;;
68097;SDS011;54886;47.036;15.466;2023-05-31T10:39:39;8.23;;;4.35;;
68097;SDS011;54886;47.036;15.466;2023-05-31T10:44:46;7.00;;;4.10;;
68097;SDS011;54886;47.036;15.466;2023-05-31T10:47:19;9.27;;;4.25;;
68097;SDS011;54886;47.036;15.466;2023-05-31T10:49:49;7.05;;;3.97;;
68097;SDS011;54886;47.036;15.466;2023-05-31T10:52:18;8.95;;;3.97;;
68097;SDS011;54886;47.036;15.466;2023-05-31T10:54:44;10.38;;;4.10;;
68097;SDS011;54886;47.036;15.466;2023-05-31T10:57:12;8.75;;;4.15;;
68097;SDS011;54886;47.036;15.466;2023-05-31T10:59:44;11.00;;;4.60;;
68097;SDS011;54886;47.036;15.466;2023-05-31T11:02:10;7.90;;;4.30;;
68097;SDS011;54886;47.036;15.466;2023-05-31T11:04:36;8.50;;;4.40;;
68097;SDS011;54886;47.036;15.466;2023-05-31T11:10:00;8.45;;;4.18;;
68097;SDS011;54886;47.036;15.466;2023-05-31T11:12:33;9.30;;;4.50;;
68097;SDS011;54886;47.036;15.466;2023-05-31T11:15:00;9.23;;;4.30;;
68097;SDS011;54886;47.036;15.466;2023-05-31T11:17:26;8.10;;;4.43;;
68097;SDS011;54886;47.036;15.466;2023-05-31T11:19:51;11.07;;;4.20;;
68097;SDS011;54886;47.036;15.466;2023-05-31T11:22:18;8.02;;;4.47;;
68097;SDS011;54886;47.036;15.466;2023-05-31T11:24:50;9.75;;;4.40;;
68097;SDS011;54886;47.036;15.466;2023-05-31T11:27:36;10.40;;;4.43;;
68097;SDS011;54886;47.036;15.466;2023-05-31T11:30:06;10.20;;;4.50;;
68097;SDS011;54886;47.036;15.466;2023-05-31T11:35:07;9.73;;;4.45;;
68097;SDS011;54886;47.036;15.466;2023-05-31T11:37:36;12.05;;;4.80;;
68097;SDS011;54886;47.036;15.466;2023-05-31T11:40:06;7.68;;;4.35;;
68097;SDS011;54886;47.036;15.466;2023-05-31T11:42:37;14.50;;;4.70;;
68097;SDS011;54886;47.036;15.466;2023-05-31T11:45:04;8.25;;;4.75;;
68097;SDS011;54886;47.036;15.466;2023-05-31T11:50:24;8.77;;;4.20;;
68097;SDS011;54886;47.036;15.466;2023-05-31T11:52:51;8.93;;;4.47;;
68097;SDS011;54886;47.036;15.466;2023-05-31T11:55:20;9.45;;;4.45;;
68097;SDS011;54886;47.036;15.466;2023-05-31T11:57:46;11.05;;;4.50;;
68097;SDS011;54886;47.036;15.466;2023-05-31T12:00:16;11.80;;;4.35;;
68097;SDS011;54886;47.036;15.466;2023-05-31T12:02:45;6.60;;;3.65;;
68097;SDS011;54886;47.036;15.466;2023-05-31T12:05:17;7.95;;;3.80;;
68097;SDS011;54886;47.036;15.466;2023-05-31T12:07:43;7.85;;;4.03;;
68097;SDS011;54886;47.036;15.466;2023-05-31T12:10:10;7.73;;;3.83;;
68097;SDS011;54886;47.036;15.466;2023-05-31T12:12:37;11.55;;;3.90;;
68097;SDS011;54886;47.036;15.466;2023-05-31T12:15:03;11.73;;;4.45;;
68097;SDS011;54886;47.036;15.466;2023-05-31T12:17:32;7.55;;;4.40;;
68097;SDS011;54886;47.036;15.466;2023-05-31T12:19:59;12.73;;;4.35;;
68097;SDS011;54886;47.036;15.466;2023-05-31T12:22:25;9.40;;;4.15;;
68097;SDS011;54886;47.036;15.466;2023-05-31T12:24:52;8.57;;;4.05;;
68097;SDS011;54886;47.036;15.466;2023-05-31T12:27:19;9.15;;;4.50;;
68097;SDS011;54886;47.036;15.466;2023-05-31T12:29:46;13.40;;;4.63;;
68097;SDS011;54886;47.036;15.466;2023-05-31T12:32:11;8.18;;;4.32;;
68097;SDS011;54886;47.036;15.466;2023-05-31T12:34:37;8.70;;;4.30;;
68097;SDS011;54886;47.036;15.466;2023-05-31T12:37:09;7.78;;;4.15;;
68097;SDS011;54886;47.036;15.466;2023-05-31T12:39:35;8.57;;;4.10;;
68097;SDS011;54886;47.036;15.466;2023-05-31T12:42:02;7.50;;;4.20;;
68097;SDS011;54886;47.036;15.466;2023-05-31T12:44:29;10.40;;;4.55;;
68097;SDS011;54886;47.036;15.466;2023-05-31T12:47:02;9.52;;;4.13;;
68097;SDS011;54886;47.036;15.466;2023-05-31T12:49:30;9.00;;;4.70;;
68097;SDS011;54886;47.036;15.466;2023-05-31T12:52:06;9.40;;;4.10;;
68097;SDS011;54886;47.036;15.466;2023-05-31T12:54:33;9.10;;;4.13;;
68097;SDS011;54886;47.036;15.466;2023-05-31T12:57:01;9.60;;;4.57;;
68097;SDS011;54886;47.036;15.466;2023-05-31T12:59:29;9.30;;;4.15;;
68097;SDS011;54886;47.036;15.466;2023-05-31T13:01:55;8.90;;;4.53;;
68097;SDS011;54886;47.036;15.466;2023-05-31T13:04:21;7.43;;;3.95;;
68097;SDS011;54886;47.036;15.466;2023-05-31T13:06:47;9.00;;;4.07;;
68097;SDS011;54886;47.036;15.466;2023-05-31T13:09:14;8.07;;;4.30;;
68097;SDS011;54886;47.036;15.466;2023-05-31T13:11:40;10.38;;;4.68;;
68097;SDS011;54886;47.036;15.466;2023-05-31T13:14:06;9.82;;;4.50;;
68097;SDS011;54886;47.036;15.466;2023-05-31T13:16:36;8.52;;;4.15;;
68097;SDS011;54886;47.036;15.466;2023-05-31T13:19:05;8.43;;;4.60;;
68097;SDS011;54886;47.036;15.466;2023-05-31T13:21:31;9.07;;;4.60;;
68097;SDS011;54886;47.036;15.466;2023-05-31T13:23:57;8.07;;;4.50;;
68097;SDS011;54886;47.036;15.466;2023-05-31T13:26:23;7.97;;;4.53;;
68097;SDS011;54886;47.036;15.466;2023-05-31T13:28:52;9.85;;;4.53;;
68097;SDS011;54886;47.036;15.466;2023-05-31T13:31:18;7.83;;;4.60;;
68097;SDS011;54886;47.036;15.466;2023-05-31T13:33:44;8.85;;;4.50;;
68097;SDS011;54886;47.036;15.466;2023-05-31T13:36:11;8.98;;;4.40;;
68097;SDS011;54886;47.036;15.466;2023-05-31T13:38:37;7.57;;;4.60;;
68097;SDS011;54886;47.036;15.466;2023-05-31T13:41:03;10.27;;;4.60;;
68097;SDS011;54886;47.036;15.466;2023-05-31T13:43:30;9.23;;;4.88;;
68097;SDS011;54886;47.036;15.466;2023-05-31T13:45:55;7.28;;;4.45;;
68097;SDS011;54886;47.036;15.466;2023-05-31T13:48:21;8.48;;;4.35;;
68097;SDS011;54886;47.036;15.466;2023-05-31T13:50:46;8.73;;;4.57;;
68097;SDS011;54886;47.036;15.466;2023-05-31T13:53:12;10.52;;;4.85;;
68097;SDS011;54886;47.036;15.466;2023-05-31T13:55:37;9.68;;;4.40;;
68097;SDS011;54886;47.036;15.466;2023-05-31T13:58:03;8.30;;;4.43;;
68097;SDS011;54886;47.036;15.466;2023-05-31T14:00:32;12.20;;;4.63;;
68097;SDS011;54886;47.036;15.466;2023-05-31T14:02:58;7.72;;;4.43;;
68097;SDS011;54886;47.036;15.466;2023-05-31T14:05:24;7.15;;;4.32;;
68097;SDS011;54886;47.036;15.466;2023-05-31T14:07:53;9.05;;;4.57;;
68097;SDS011;54886;47.036;15.466;2023-05-31T14:10:19;7.60;;;4.50;;
68097;SDS011;54886;47.036;15.466;2023-05-31T14:12:44;8.85;;;4.82;;
68097;SDS011;54886;47.036;15.466;2023-05-31T14:15:11;6.88;;;4.38;;
68097;SDS011;54886;47.036;15.466;2023-05-31T14:17:36;13.98;;;4.65;;
68097;SDS011;54886;47.036;15.466;2023-05-31T14:20:02;9.48;;;5.00;;
68097;SDS011;54886;47.036;15.466;2023-05-31T14:22:29;8.55;;;4.68;;
68097;SDS011;54886;47.036;15.466;2023-05-31T14:24:54;10.73;;;4.72;;
68097;SDS011;54886;47.036;15.466;2023-05-31T14:27:20;9.00;;;4.45;;
68097;SDS011;54886;47.036;15.466;2023-05-31T14:29:45;7.28;;;4.30;;
68097;SDS011;54886;47.036;15.466;2023-05-31T14:32:10;9.88;;;4.75;;
68097;SDS011;54886;47.036;15.466;2023-05-31T14:34:40;9.65;;;4.55;;
68097;SDS011;54886;47.036;15.466;2023-05-31T14:37:09;8.02;;;4.55;;
68097;SDS011;54886;47.036;15.466;2023-05-31T14:39:34;9.75;;;4.72;;
68097;SDS011;54886;47.036;15.466;2023-05-31T14:42:00;8.77;;;4.80;;
68097;SDS011;54886;47.036;15.466;2023-05-31T14:44:25;8.70;;;4.68;;
68097;SDS011;54886;47.036;15.466;2023-05-31T14:46:51;10.63;;;4.70;;
68097;SDS011;54886;47.036;15.466;2023-05-31T14:49:19;8.10;;;4.60;;
68097;SDS011;54886;47.036;15.466;2023-05-31T14:51:45;7.55;;;4.25;;
68097;SDS011;54886;47.036;15.466;2023-05-31T14:54:10;8.15;;;4.50;;
68097;SDS011;54886;47.036;15.466;2023-05-31T14:56:36;9.55;;;4.60;;
68097;SDS011;54886;47.036;15.466;2023-05-31T14:59:01;8.73;;;4.65;;
68097;SDS011;54886;47.036;15.466;2023-05-31T15:01:26;11.50;;;4.60;;